sensor_id;sensor_type;location;lat;lon;timestamp;P1;durP1;ratioP1;P2;durP2;ratioP2
29984;SDS011;17387;42.690;23.328;2023-04-24T00:02:17;14.77;;;7.33;;
29984;SDS011;17387;42.690;23.328;2023-04-24T00:04:42;11.70;;;7.13;;
29984;SDS011;17387;42.690;23.328;2023-04-24T00:07:10;17.42;;;7.43;;
29984;SDS011;17387;42.690;23.328;2023-04-24T00:09:35;9.68;;;7.00;;
29984;SDS011;17387;42.690;23.328;2023-04-24T00:12:00;11.05;;;7.03;;
29984;SDS011;17387;42.690;23.328;2023-04-24T00:14:28;13.35;;;6.78;;
29984;SDS011;17387;42.690;23.328;2023-04-24T00:16:53;9.35;;;6.53;;
29984;SDS011;17387;42.690;23.328;2023-04-24T00:19:19;11.02;;;6.60;;
29984;SDS011;17387;42.690;23.328;2023-04-24T00:21:46;9.55;;;6.10;;
29984;SDS011;17387;42.690;23.328;2023-04-24T00:24:11;11.20;;;6.07;;
29984;SDS011;17387;42.690;23.328;2023-04-24T00:26:36;12.75;;;5.95;;
29984;SDS011;17387;42.690;23.328;2023-04-24T00:29:01;9.75;;;6.18;;
29984;SDS011;17387;42.690;23.328;2023-04-24T00:31:27;9.88;;;6.30;;
29984;SDS011;17387;42.690;23.328;2023-04-24T00:33:52;9.65;;;6.05;;
29984;SDS011;17387;42.690;23.328;2023-04-24T00:36:17;11.95;;;6.60;;
29984;SDS011;17387;42.690;23.328;2023-04-24T00:38:45;9.20;;;5.70;;
29984;SDS011;17387;42.690;23.328;2023-04-24T00:41:10;9.68;;;5.63;;
29984;SDS011;17387;42.690;23.328;2023-04-24T00:43:36;10.63;;;5.57;;
29984;SDS011;17387;42.690;23.328;2023-04-24T00:46:01;7.70;;;5.40;;
29984;SDS011;17387;42.690;23.328;2023-04-24T00:48:26;9.32;;;5.40;;
29984;SDS011;17387;42.690;23.328;2023-04-24T00:50:52;8.43;;;5.75;;
29984;SDS011;17387;42.690;23.328;2023-04-24T00:53:18;7.93;;;5.05;;
29984;SDS011;17387;42.690;23.328;2023-04-24T00:55:43;10.40;;;5.65;;
29984;SDS011;17387;42.690;23.328;2023-04-24T00:58:08;9.98;;;5.15;;
29984;SDS011;17387;42.690;23.328;2023-04-24T01:00:33;6.88;;;5.43;;
29984;SDS011;17387;42.690;23.328;2023-04-24T01:03:03;11.18;;;5.55;;
29984;SDS011;17387;42.690;23.328;2023-04-24T01:05:32;8.45;;;5.78;;
29984;SDS011;17387;42.690;23.328;2023-04-24T01:07:58;8.40;;;5.80;;
29984;SDS011;17387;42.690;23.328;2023-04-24T01:10:23;9.35;;;5.80;;
29984;SDS011;17387;42.690;23.328;2023-04-24T01:12:49;7.10;;;5.65;;
29984;SDS011;17387;42.690;23.328;2023-04-24T01:15:15;10.13;;;6.20;;
29984;SDS011;17387;42.690;23.328;2023-04-24T01:17:40;9.10;;;6.25;;
29984;SDS011;17387;42.690;23.328;2023-04-24T01:20:06;10.32;;;5.95;;
29984;SDS011;17387;42.690;23.328;2023-04-24T01:22:33;13.07;;;6.10;;
29984;SDS011;17387;42.690;23.328;2023-04-24T01:24:58;7.95;;;5.65;;
29984;SDS011;17387;42.690;23.328;2023-04-24T01:27:23;10.13;;;6.30;;
29984;SDS011;17387;42.690;23.328;2023-04-24T01:29:48;9.93;;;6.53;;
29984;SDS011;17387;42.690;23.328;2023-04-24T01:32:14;12.68;;;7.15;;
29984;SDS011;17387;42.690;23.328;2023-04-24T01:34:40;10.48;;;5.80;;
29984;SDS011;17387;42.690;23.328;2023-04-24T01:37:05;10.05;;;6.60;;
29984;SDS011;17387;42.690;23.328;2023-04-24T01:39:30;9.70;;;6.85;;
29984;SDS011;17387;42.690;23.328;2023-04-24T01:41:56;10.20;;;6.72;;
29984;SDS011;17387;42.690;23.328;2023-04-24T01:44:21;10.43;;;6.68;;
29984;SDS011;17387;42.690;23.328;2023-04-24T01:46:47;13.40;;;6.82;;
29984;SDS011;17387;42.690;23.328;2023-04-24T01:49:12;14.48;;;6.43;;
29984;SDS011;17387;42.690;23.328;2023-04-24T01:51:37;13.70;;;6.43;;
29984;SDS011;17387;42.690;23.328;2023-04-24T01:54:03;13.50;;;6.93;;
29984;SDS011;17387;42.690;23.328;2023-04-24T01:56:31;9.73;;;6.60;;
29984;SDS011;17387;42.690;23.328;2023-04-24T01:58:58;12.57;;;6.55;;
29984;SDS011;17387;42.690;23.328;2023-04-24T02:01:24;11.13;;;6.60;;
29984;SDS011;17387;42.690;23.328;2023-04-24T02:03:50;10.73;;;6.55;;
29984;SDS011;17387;42.690;23.328;2023-04-24T02:06:15;13.35;;;7.00;;
29984;SDS011;17387;42.690;23.328;2023-04-24T02:08:41;11.00;;;7.15;;
29984;SDS011;17387;42.690;23.328;2023-04-24T02:11:06;12.30;;;6.60;;
29984;SDS011;17387;42.690;23.328;2023-04-24T02:13:31;11.27;;;7.20;;
29984;SDS011;17387;42.690;23.328;2023-04-24T02:15:57;11.15;;;7.18;;
29984;SDS011;17387;42.690;23.328;2023-04-24T02:18:23;11.35;;;7.18;;
29984;SDS011;17387;42.690;23.328;2023-04-24T02:20:48;11.07;;;7.30;;
29984;SDS011;17387;42.690;23.328;2023-04-24T02:23:13;7.53;;;6.70;;
29984;SDS011;17387;42.690;23.328;2023-04-24T02:25:39;13.05;;;7.18;;
29984;SDS011;17387;42.690;23.328;2023-04-24T02:28:04;12.02;;;7.50;;
29984;SDS011;17387;42.690;23.328;2023-04-24T02:30:30;13.98;;;7.00;;
29984;SDS011;17387;42.690;23.328;2023-04-24T02:32:55;8.80;;;6.75;;
29984;SDS011;17387;42.690;23.328;2023-04-24T02:35:20;15.18;;;7.30;;
29984;SDS011;17387;42.690;23.328;2023-04-24T02:37:46;10.48;;;7.25;;
29984;SDS011;17387;42.690;23.328;2023-04-24T02:40:11;14.45;;;7.43;;
29984;SDS011;17387;42.690;23.328;2023-04-24T02:42:36;10.48;;;7.35;;
29984;SDS011;17387;42.690;23.328;2023-04-24T02:45:02;11.10;;;7.32;;
29984;SDS011;17387;42.690;23.328;2023-04-24T02:47:27;10.77;;;7.40;;
29984;SDS011;17387;42.690;23.328;2023-04-24T02:49:52;11.27;;;7.88;;
29984;SDS011;17387;42.690;23.328;2023-04-24T02:52:18;13.48;;;7.38;;
29984;SDS011;17387;42.690;23.328;2023-04-24T02:54:43;15.38;;;7.82;;
29984;SDS011;17387;42.690;23.328;2023-04-24T02:57:09;14.65;;;7.70;;
29984;SDS011;17387;42.690;23.328;2023-04-24T02:59:34;15.45;;;8.60;;
29984;SDS011;17387;42.690;23.328;2023-04-24T03:01:59;18.98;;;8.93;;
29984;SDS011;17387;42.690;23.328;2023-04-24T03:04:25;14.55;;;8.10;;
29984;SDS011;17387;42.690;23.328;2023-04-24T03:06:51;13.27;;;8.10;;
29984;SDS011;17387;42.690;23.328;2023-04-24T03:09:18;14.23;;;8.02;;
29984;SDS011;17387;42.690;23.328;2023-04-24T03:11:43;19.25;;;8.63;;
29984;SDS011;17387;42.690;23.328;2023-04-24T03:14:08;11.93;;;8.85;;
29984;SDS011;17387;42.690;23.328;2023-04-24T03:16:34;11.77;;;8.50;;
29984;SDS011;17387;42.690;23.328;2023-04-24T03:19:02;15.07;;;8.40;;
29984;SDS011;17387;42.690;23.328;2023-04-24T03:21:27;12.73;;;8.48;;
29984;SDS011;17387;42.690;23.328;2023-04-24T03:23:53;12.77;;;8.88;;
29984;SDS011;17387;42.690;23.328;2023-04-24T03:26:18;12.77;;;8.57;;
29984;SDS011;17387;42.690;23.328;2023-04-24T03:28:44;11.68;;;8.43;;
29984;SDS011;17387;42.690;23.328;2023-04-24T03:31:10;12.02;;;8.27;;
29984;SDS011;17387;42.690;23.328;2023-04-24T03:33:35;15.30;;;8.45;;
29984;SDS011;17387;42.690;23.328;2023-04-24T03:36:01;11.50;;;8.23;;
29984;SDS011;17387;42.690;23.328;2023-04-24T03:38:26;12.77;;;8.10;;
29984;SDS011;17387;42.690;23.328;2023-04-24T03:40:51;15.48;;;9.02;;
29984;SDS011;17387;42.690;23.328;2023-04-24T03:43:16;17.00;;;8.77;;
29984;SDS011;17387;42.690;23.328;2023-04-24T03:45:42;17.38;;;9.00;;
29984;SDS011;17387;42.690;23.328;2023-04-24T03:48:07;15.02;;;8.60;;
29984;SDS011;17387;42.690;23.328;2023-04-24T03:50:32;13.88;;;8.70;;
29984;SDS011;17387;42.690;23.328;2023-04-24T03:52:58;16.90;;;8.85;;
29984;SDS011;17387;42.690;23.328;2023-04-24T03:55:23;13.75;;;8.13;;
29984;SDS011;17387;42.690;23.328;2023-04-24T03:57:48;15.15;;;8.45;;
29984;SDS011;17387;42.690;23.328;2023-04-24T04:00:14;17.25;;;9.13;;
29984;SDS011;17387;42.690;23.328;2023-04-24T04:02:39;13.90;;;8.70;;
29984;SDS011;17387;42.690;23.328;2023-04-24T04:05:04;13.90;;;8.40;;
29984;SDS011;17387;42.690;23.328;2023-04-24T04:07:30;16.35;;;8.15;;
29984;SDS011;17387;42.690;23.328;2023-04-24T04:09:55;13.85;;;7.45;;
29984;SDS011;17387;42.690;23.328;2023-04-24T04:12:20;14.95;;;7.95;;
29984;SDS011;17387;42.690;23.328;2023-04-24T04:14:45;12.85;;;7.85;;
29984;SDS011;17387;42.690;23.328;2023-04-24T04:17:11;18.15;;;8.18;;
29984;SDS011;17387;42.690;23.328;2023-04-24T04:19:36;16.92;;;8.73;;
29984;SDS011;17387;42.690;23.328;2023-04-24T04:22:02;9.20;;;6.78;;
29984;SDS011;17387;42.690;23.328;2023-04-24T04:24:27;10.45;;;6.60;;
29984;SDS011;17387;42.690;23.328;2023-04-24T04:26:53;11.15;;;6.78;;
29984;SDS011;17387;42.690;23.328;2023-04-24T04:29:21;10.95;;;7.22;;
29984;SDS011;17387;42.690;23.328;2023-04-24T04:31:47;11.80;;;6.88;;
29984;SDS011;17387;42.690;23.328;2023-04-24T04:34:16;17.15;;;7.47;;
29984;SDS011;17387;42.690;23.328;2023-04-24T04:37:02;14.02;;;6.53;;
29984;SDS011;17387;42.690;23.328;2023-04-24T04:39:43;13.90;;;6.32;;
29984;SDS011;17387;42.690;23.328;2023-04-24T04:45:29;13.50;;;6.10;;
29984;SDS011;17387;42.690;23.328;2023-04-24T04:48:22;10.88;;;6.32;;
29984;SDS011;17387;42.690;23.328;2023-04-24T04:51:01;11.75;;;6.03;;
29984;SDS011;17387;42.690;23.328;2023-04-24T04:57:14;11.23;;;6.82;;
29984;SDS011;17387;42.690;23.328;2023-04-24T04:59:40;12.70;;;7.13;;
29984;SDS011;17387;42.690;23.328;2023-04-24T05:02:06;13.93;;;7.45;;
29984;SDS011;17387;42.690;23.328;2023-04-24T05:04:31;12.10;;;7.15;;
29984;SDS011;17387;42.690;23.328;2023-04-24T05:06:56;12.95;;;6.60;;
29984;SDS011;17387;42.690;23.328;2023-04-24T05:09:21;14.00;;;9.65;;
29984;SDS011;17387;42.690;23.328;2023-04-24T05:11:47;13.95;;;7.22;;
29984;SDS011;17387;42.690;23.328;2023-04-24T05:14:12;13.30;;;6.57;;
29984;SDS011;17387;42.690;23.328;2023-04-24T05:16:37;12.75;;;8.23;;
29984;SDS011;17387;42.690;23.328;2023-04-24T05:19:03;20.48;;;7.88;;
29984;SDS011;17387;42.690;23.328;2023-04-24T05:21:28;15.32;;;7.97;;
29984;SDS011;17387;42.690;23.328;2023-04-24T05:23:54;15.77;;;8.18;;
29984;SDS011;17387;42.690;23.328;2023-04-24T05:26:19;14.52;;;9.45;;
29984;SDS011;17387;42.690;23.328;2023-04-24T05:28:44;22.65;;;13.82;;
29984;SDS011;17387;42.690;23.328;2023-04-24T05:31:10;18.10;;;9.55;;
29984;SDS011;17387;42.690;23.328;2023-04-24T05:33:35;19.30;;;9.18;;
29984;SDS011;17387;42.690;23.328;2023-04-24T05:36:00;19.38;;;9.18;;
29984;SDS011;17387;42.690;23.328;2023-04-24T05:38:25;15.40;;;8.65;;
29984;SDS011;17387;42.690;23.328;2023-04-24T05:40:51;13.48;;;8.25;;
29984;SDS011;17387;42.690;23.328;2023-04-24T05:43:16;16.23;;;9.27;;
29984;SDS011;17387;42.690;23.328;2023-04-24T05:45:41;19.33;;;9.07;;
29984;SDS011;17387;42.690;23.328;2023-04-24T05:48:07;15.10;;;8.90;;
29984;SDS011;17387;42.690;23.328;2023-04-24T05:50:32;17.20;;;9.60;;
29984;SDS011;17387;42.690;23.328;2023-04-24T05:52:57;14.90;;;9.15;;
29984;SDS011;17387;42.690;23.328;2023-04-24T05:55:27;13.40;;;9.50;;
29984;SDS011;17387;42.690;23.328;2023-04-24T05:57:52;22.65;;;10.32;;
29984;SDS011;17387;42.690;23.328;2023-04-24T06:00:17;16.60;;;8.95;;
29984;SDS011;17387;42.690;23.328;2023-04-24T06:02:44;25.52;;;10.55;;
29984;SDS011;17387;42.690;23.328;2023-04-24T06:05:10;18.65;;;10.35;;
29984;SDS011;17387;42.690;23.328;2023-04-24T06:07:35;16.65;;;9.77;;
29984;SDS011;17387;42.690;23.328;2023-04-24T06:10:01;14.60;;;10.00;;
29984;SDS011;17387;42.690;23.328;2023-04-24T06:12:26;16.35;;;9.95;;
29984;SDS011;17387;42.690;23.328;2023-04-24T06:14:52;19.85;;;10.48;;
29984;SDS011;17387;42.690;23.328;2023-04-24T06:17:17;19.60;;;10.82;;
29984;SDS011;17387;42.690;23.328;2023-04-24T06:19:43;17.48;;;10.30;;
29984;SDS011;17387;42.690;23.328;2023-04-24T06:22:08;18.83;;;10.82;;
29984;SDS011;17387;42.690;23.328;2023-04-24T06:24:34;18.20;;;11.03;;
29984;SDS011;17387;42.690;23.328;2023-04-24T06:26:59;17.98;;;11.07;;
29984;SDS011;17387;42.690;23.328;2023-04-24T06:29:26;22.75;;;10.88;;
29984;SDS011;17387;42.690;23.328;2023-04-24T06:31:54;22.38;;;12.23;;
29984;SDS011;17387;42.690;23.328;2023-04-24T06:34:19;20.58;;;11.07;;
29984;SDS011;17387;42.690;23.328;2023-04-24T06:36:46;20.27;;;10.50;;
29984;SDS011;17387;42.690;23.328;2023-04-24T06:39:11;17.88;;;10.70;;
29984;SDS011;17387;42.690;23.328;2023-04-24T06:41:37;17.85;;;11.52;;
29984;SDS011;17387;42.690;23.328;2023-04-24T06:44:05;20.20;;;11.35;;
29984;SDS011;17387;42.690;23.328;2023-04-24T06:46:35;15.27;;;10.90;;
29984;SDS011;17387;42.690;23.328;2023-04-24T06:52:23;18.20;;;11.68;;
29984;SDS011;17387;42.690;23.328;2023-04-24T06:54:49;20.30;;;11.15;;
29984;SDS011;17387;42.690;23.328;2023-04-24T06:57:20;15.63;;;10.75;;
29984;SDS011;17387;42.690;23.328;2023-04-24T06:59:51;13.55;;;9.52;;
29984;SDS011;17387;42.690;23.328;2023-04-24T07:02:29;22.92;;;10.95;;
29984;SDS011;17387;42.690;23.328;2023-04-24T07:05:14;20.10;;;11.90;;
29984;SDS011;17387;42.690;23.328;2023-04-24T07:07:52;16.90;;;11.45;;
29984;SDS011;17387;42.690;23.328;2023-04-24T07:10:23;69.55;;;34.60;;
29984;SDS011;17387;42.690;23.328;2023-04-24T07:15:49;27.73;;;15.02;;
29984;SDS011;17387;42.690;23.328;2023-04-24T07:21:51;25.27;;;11.63;;
29984;SDS011;17387;42.690;23.328;2023-04-24T07:31:27;22.17;;;11.88;;
29984;SDS011;17387;42.690;23.328;2023-04-24T07:34:36;22.48;;;12.90;;
29984;SDS011;17387;42.690;23.328;2023-04-24T07:37:23;17.00;;;11.10;;
29984;SDS011;17387;42.690;23.328;2023-04-24T07:40:00;18.80;;;10.95;;
29984;SDS011;17387;42.690;23.328;2023-04-24T07:42:40;17.33;;;10.82;;
29984;SDS011;17387;42.690;23.328;2023-04-24T07:45:06;14.80;;;10.45;;
29984;SDS011;17387;42.690;23.328;2023-04-24T07:47:32;13.82;;;10.23;;
29984;SDS011;17387;42.690;23.328;2023-04-24T07:49:57;12.88;;;8.55;;
29984;SDS011;17387;42.690;23.328;2023-04-24T07:52:23;15.88;;;10.05;;
29984;SDS011;17387;42.690;23.328;2023-04-24T07:54:48;14.23;;;9.05;;
29984;SDS011;17387;42.690;23.328;2023-04-24T07:57:14;23.52;;;10.23;;
29984;SDS011;17387;42.690;23.328;2023-04-24T07:59:40;13.23;;;9.63;;
29984;SDS011;17387;42.690;23.328;2023-04-24T08:02:05;13.38;;;9.63;;
29984;SDS011;17387;42.690;23.328;2023-04-24T08:04:31;16.45;;;11.80;;
29984;SDS011;17387;42.690;23.328;2023-04-24T08:06:56;15.15;;;9.52;;
29984;SDS011;17387;42.690;23.328;2023-04-24T08:09:21;15.88;;;9.43;;
29984;SDS011;17387;42.690;23.328;2023-04-24T08:11:47;21.27;;;12.00;;
29984;SDS011;17387;42.690;23.328;2023-04-24T08:14:12;11.68;;;8.55;;
29984;SDS011;17387;42.690;23.328;2023-04-24T08:16:38;15.48;;;10.20;;
29984;SDS011;17387;42.690;23.328;2023-04-24T08:19:03;14.10;;;8.73;;
29984;SDS011;17387;42.690;23.328;2023-04-24T08:21:28;14.25;;;8.63;;
29984;SDS011;17387;42.690;23.328;2023-04-24T08:23:54;15.25;;;9.02;;
29984;SDS011;17387;42.690;23.328;2023-04-24T08:26:19;14.60;;;9.57;;
29984;SDS011;17387;42.690;23.328;2023-04-24T08:28:45;16.52;;;9.55;;
29984;SDS011;17387;42.690;23.328;2023-04-24T08:31:10;16.83;;;9.05;;
29984;SDS011;17387;42.690;23.328;2023-04-24T08:33:35;16.63;;;9.13;;
29984;SDS011;17387;42.690;23.328;2023-04-24T08:36:04;19.00;;;8.93;;
29984;SDS011;17387;42.690;23.328;2023-04-24T08:38:29;14.25;;;8.95;;
29984;SDS011;17387;42.690;23.328;2023-04-24T08:40:56;11.95;;;7.38;;
29984;SDS011;17387;42.690;23.328;2023-04-24T08:43:21;15.52;;;8.63;;
29984;SDS011;17387;42.690;23.328;2023-04-24T08:45:47;15.05;;;8.48;;
29984;SDS011;17387;42.690;23.328;2023-04-24T08:48:12;26.23;;;13.15;;
29984;SDS011;17387;42.690;23.328;2023-04-24T08:50:38;14.05;;;7.72;;
29984;SDS011;17387;42.690;23.328;2023-04-24T08:53:03;13.02;;;7.53;;
29984;SDS011;17387;42.690;23.328;2023-04-24T08:55:29;10.23;;;7.60;;
29984;SDS011;17387;42.690;23.328;2023-04-24T08:57:55;14.20;;;9.18;;
29984;SDS011;17387;42.690;23.328;2023-04-24T09:00:21;15.40;;;8.60;;
29984;SDS011;17387;42.690;23.328;2023-04-24T09:02:46;14.63;;;8.43;;
29984;SDS011;17387;42.690;23.328;2023-04-24T09:05:13;15.50;;;9.73;;
29984;SDS011;17387;42.690;23.328;2023-04-24T09:07:39;13.55;;;8.27;;
29984;SDS011;17387;42.690;23.328;2023-04-24T09:10:06;13.70;;;9.57;;
29984;SDS011;17387;42.690;23.328;2023-04-24T09:12:32;13.02;;;8.20;;
29984;SDS011;17387;42.690;23.328;2023-04-24T09:14:59;10.40;;;7.40;;
29984;SDS011;17387;42.690;23.328;2023-04-24T09:17:25;14.98;;;7.80;;
29984;SDS011;17387;42.690;23.328;2023-04-24T09:19:52;10.63;;;7.30;;
29984;SDS011;17387;42.690;23.328;2023-04-24T09:22:17;10.55;;;7.63;;
29984;SDS011;17387;42.690;23.328;2023-04-24T09:24:43;12.13;;;8.55;;
29984;SDS011;17387;42.690;23.328;2023-04-24T09:27:10;12.60;;;8.23;;
29984;SDS011;17387;42.690;23.328;2023-04-24T09:29:36;12.43;;;8.18;;
29984;SDS011;17387;42.690;23.328;2023-04-24T09:32:17;14.77;;;9.17;;
29984;SDS011;17387;42.690;23.328;2023-04-24T09:34:43;14.88;;;9.20;;
29984;SDS011;17387;42.690;23.328;2023-04-24T09:37:11;18.90;;;9.63;;
29984;SDS011;17387;42.690;23.328;2023-04-24T09:39:40;12.02;;;7.63;;
29984;SDS011;17387;42.690;23.328;2023-04-24T09:42:05;10.10;;;7.20;;
29984;SDS011;17387;42.690;23.328;2023-04-24T09:44:31;10.98;;;8.35;;
29984;SDS011;17387;42.690;23.328;2023-04-24T09:46:59;13.25;;;9.52;;
29984;SDS011;17387;42.690;23.328;2023-04-24T09:49:26;15.50;;;8.77;;
29984;SDS011;17387;42.690;23.328;2023-04-24T09:51:51;11.38;;;7.50;;
29984;SDS011;17387;42.690;23.328;2023-04-24T09:54:18;10.10;;;7.53;;
29984;SDS011;17387;42.690;23.328;2023-04-24T09:56:45;17.83;;;10.02;;
29984;SDS011;17387;42.690;23.328;2023-04-24T09:59:11;11.60;;;7.28;;
29984;SDS011;17387;42.690;23.328;2023-04-24T10:01:36;12.35;;;7.68;;
29984;SDS011;17387;42.690;23.328;2023-04-24T10:04:03;11.57;;;7.13;;
29984;SDS011;17387;42.690;23.328;2023-04-24T10:06:34;9.20;;;6.40;;
29984;SDS011;17387;42.690;23.328;2023-04-24T10:09:00;7.00;;;5.63;;
29984;SDS011;17387;42.690;23.328;2023-04-24T10:11:26;9.63;;;6.20;;
29984;SDS011;17387;42.690;23.328;2023-04-24T10:13:52;11.60;;;6.85;;
29984;SDS011;17387;42.690;23.328;2023-04-24T10:16:17;10.05;;;6.40;;
29984;SDS011;17387;42.690;23.328;2023-04-24T10:18:43;8.82;;;6.10;;
29984;SDS011;17387;42.690;23.328;2023-04-24T10:21:09;11.00;;;7.95;;
29984;SDS011;17387;42.690;23.328;2023-04-24T10:23:35;20.48;;;11.00;;
29984;SDS011;17387;42.690;23.328;2023-04-24T10:26:00;20.70;;;10.05;;
29984;SDS011;17387;42.690;23.328;2023-04-24T10:28:26;13.15;;;6.22;;
29984;SDS011;17387;42.690;23.328;2023-04-24T10:30:55;11.60;;;6.38;;
29984;SDS011;17387;42.690;23.328;2023-04-24T10:33:21;12.00;;;7.22;;
29984;SDS011;17387;42.690;23.328;2023-04-24T10:35:47;7.30;;;5.70;;
29984;SDS011;17387;42.690;23.328;2023-04-24T10:38:16;11.05;;;5.80;;
29984;SDS011;17387;42.690;23.328;2023-04-24T10:40:43;11.38;;;6.22;;
29984;SDS011;17387;42.690;23.328;2023-04-24T10:43:09;15.50;;;6.70;;
29984;SDS011;17387;42.690;23.328;2023-04-24T10:45:35;17.95;;;8.30;;
29984;SDS011;17387;42.690;23.328;2023-04-24T10:48:02;11.52;;;5.97;;
29984;SDS011;17387;42.690;23.328;2023-04-24T10:50:42;9.02;;;6.43;;
29984;SDS011;17387;42.690;23.328;2023-04-24T10:53:12;15.90;;;9.45;;
29984;SDS011;17387;42.690;23.328;2023-04-24T10:55:41;11.48;;;5.63;;
29984;SDS011;17387;42.690;23.328;2023-04-24T10:58:07;19.35;;;10.40;;
29984;SDS011;17387;42.690;23.328;2023-04-24T11:00:32;8.60;;;5.28;;
29984;SDS011;17387;42.690;23.328;2023-04-24T11:03:01;18.95;;;11.57;;
29984;SDS011;17387;42.690;23.328;2023-04-24T11:08:14;9.05;;;5.53;;
29984;SDS011;17387;42.690;23.328;2023-04-24T11:10:44;9.82;;;5.68;;
29984;SDS011;17387;42.690;23.328;2023-04-24T11:13:10;14.73;;;7.72;;
29984;SDS011;17387;42.690;23.328;2023-04-24T11:15:35;9.15;;;5.90;;
29984;SDS011;17387;42.690;23.328;2023-04-24T11:18:00;9.57;;;5.80;;
29984;SDS011;17387;42.690;23.328;2023-04-24T11:20:25;11.63;;;7.18;;
29984;SDS011;17387;42.690;23.328;2023-04-24T11:22:52;7.25;;;5.45;;
29984;SDS011;17387;42.690;23.328;2023-04-24T11:25:18;9.75;;;5.60;;
29984;SDS011;17387;42.690;23.328;2023-04-24T11:27:44;11.70;;;5.88;;
29984;SDS011;17387;42.690;23.328;2023-04-24T11:30:11;10.70;;;6.70;;
29984;SDS011;17387;42.690;23.328;2023-04-24T11:32:37;15.65;;;8.10;;
29984;SDS011;17387;42.690;23.328;2023-04-24T11:35:06;8.60;;;6.75;;
29984;SDS011;17387;42.690;23.328;2023-04-24T11:37:38;16.58;;;9.70;;
29984;SDS011;17387;42.690;23.328;2023-04-24T11:40:04;9.27;;;7.43;;
29984;SDS011;17387;42.690;23.328;2023-04-24T11:42:37;12.18;;;7.28;;
29984;SDS011;17387;42.690;23.328;2023-04-24T11:45:06;9.73;;;6.28;;
29984;SDS011;17387;42.690;23.328;2023-04-24T11:47:32;7.10;;;5.80;;
29984;SDS011;17387;42.690;23.328;2023-04-24T11:50:00;6.70;;;5.63;;
29984;SDS011;17387;42.690;23.328;2023-04-24T11:52:26;8.70;;;5.38;;
29984;SDS011;17387;42.690;23.328;2023-04-24T11:54:51;8.25;;;5.75;;
29984;SDS011;17387;42.690;23.328;2023-04-24T11:57:20;7.03;;;4.60;;
29984;SDS011;17387;42.690;23.328;2023-04-24T11:59:46;8.95;;;6.07;;
29984;SDS011;17387;42.690;23.328;2023-04-24T12:02:24;4.97;;;4.00;;
29984;SDS011;17387;42.690;23.328;2023-04-24T12:04:50;20.55;;;12.30;;
29984;SDS011;17387;42.690;23.328;2023-04-24T12:07:15;15.05;;;9.90;;
29984;SDS011;17387;42.690;23.328;2023-04-24T12:12:06;10.45;;;7.28;;
29984;SDS011;17387;42.690;23.328;2023-04-24T12:14:32;11.75;;;9.27;;
29984;SDS011;17387;42.690;23.328;2023-04-24T12:16:57;7.28;;;5.40;;
29984;SDS011;17387;42.690;23.328;2023-04-24T12:19:23;9.70;;;5.28;;
29984;SDS011;17387;42.690;23.328;2023-04-24T12:22:01;9.40;;;5.30;;
29984;SDS011;17387;42.690;23.328;2023-04-24T12:24:26;12.07;;;6.50;;
29984;SDS011;17387;42.690;23.328;2023-04-24T12:26:52;8.95;;;5.22;;
29984;SDS011;17387;42.690;23.328;2023-04-24T12:29:21;15.48;;;8.32;;
29984;SDS011;17387;42.690;23.328;2023-04-24T12:31:47;6.20;;;4.97;;
29984;SDS011;17387;42.690;23.328;2023-04-24T12:34:22;12.00;;;6.22;;
29984;SDS011;17387;42.690;23.328;2023-04-24T12:36:48;14.48;;;8.73;;
29984;SDS011;17387;42.690;23.328;2023-04-24T12:39:14;13.40;;;5.88;;
29984;SDS011;17387;42.690;23.328;2023-04-24T12:41:48;9.57;;;6.00;;
29984;SDS011;17387;42.690;23.328;2023-04-24T12:44:15;13.32;;;6.50;;
29984;SDS011;17387;42.690;23.328;2023-04-24T12:46:40;10.93;;;6.70;;
29984;SDS011;17387;42.690;23.328;2023-04-24T12:49:05;7.10;;;4.90;;
29984;SDS011;17387;42.690;23.328;2023-04-24T12:51:31;8.18;;;6.22;;
29984;SDS011;17387;42.690;23.328;2023-04-24T12:53:56;7.83;;;5.33;;
29984;SDS011;17387;42.690;23.328;2023-04-24T12:56:24;9.02;;;6.35;;
29984;SDS011;17387;42.690;23.328;2023-04-24T12:58:53;8.82;;;6.57;;
29984;SDS011;17387;42.690;23.328;2023-04-24T13:01:21;13.07;;;8.63;;
29984;SDS011;17387;42.690;23.328;2023-04-24T13:03:46;12.95;;;8.65;;
29984;SDS011;17387;42.690;23.328;2023-04-24T13:06:14;9.10;;;7.35;;
29984;SDS011;17387;42.690;23.328;2023-04-24T13:08:46;9.05;;;6.00;;
29984;SDS011;17387;42.690;23.328;2023-04-24T13:11:13;10.15;;;5.95;;
29984;SDS011;17387;42.690;23.328;2023-04-24T13:13:39;7.18;;;5.40;;
29984;SDS011;17387;42.690;23.328;2023-04-24T13:16:04;5.57;;;4.78;;
29984;SDS011;17387;42.690;23.328;2023-04-24T13:18:30;9.32;;;7.55;;
29984;SDS011;17387;42.690;23.328;2023-04-24T13:20:55;8.63;;;5.10;;
29984;SDS011;17387;42.690;23.328;2023-04-24T13:23:20;7.13;;;5.10;;
29984;SDS011;17387;42.690;23.328;2023-04-24T13:25:46;9.60;;;5.13;;
29984;SDS011;17387;42.690;23.328;2023-04-24T13:28:12;8.80;;;4.43;;
29984;SDS011;17387;42.690;23.328;2023-04-24T13:30:37;5.95;;;4.50;;
29984;SDS011;17387;42.690;23.328;2023-04-24T13:33:02;4.97;;;4.03;;
29984;SDS011;17387;42.690;23.328;2023-04-24T13:35:28;4.80;;;4.30;;
29984;SDS011;17387;42.690;23.328;2023-04-24T13:37:53;8.88;;;5.07;;
29984;SDS011;17387;42.690;23.328;2023-04-24T13:40:18;7.20;;;5.28;;
29984;SDS011;17387;42.690;23.328;2023-04-24T13:42:43;5.33;;;4.13;;
29984;SDS011;17387;42.690;23.328;2023-04-24T13:45:09;6.38;;;4.10;;
29984;SDS011;17387;42.690;23.328;2023-04-24T13:47:35;13.35;;;7.45;;
29984;SDS011;17387;42.690;23.328;2023-04-24T13:50:01;6.05;;;3.95;;
29984;SDS011;17387;42.690;23.328;2023-04-24T13:52:26;7.05;;;4.68;;
29984;SDS011;17387;42.690;23.328;2023-04-24T13:54:51;9.00;;;4.65;;
29984;SDS011;17387;42.690;23.328;2023-04-24T13:57:16;7.93;;;4.73;;
29984;SDS011;17387;42.690;23.328;2023-04-24T13:59:42;5.68;;;4.50;;
29984;SDS011;17387;42.690;23.328;2023-04-24T14:02:07;10.60;;;5.70;;
29984;SDS011;17387;42.690;23.328;2023-04-24T14:04:33;5.77;;;4.90;;
29984;SDS011;17387;42.690;23.328;2023-04-24T14:06:58;8.20;;;4.97;;
29984;SDS011;17387;42.690;23.328;2023-04-24T14:09:23;13.82;;;6.95;;
29984;SDS011;17387;42.690;23.328;2023-04-24T14:11:48;7.93;;;5.67;;
29984;SDS011;17387;42.690;23.328;2023-04-24T14:14:14;6.95;;;4.78;;
29984;SDS011;17387;42.690;23.328;2023-04-24T14:16:39;6.80;;;4.75;;
29984;SDS011;17387;42.690;23.328;2023-04-24T14:19:04;6.87;;;5.73;;
29984;SDS011;17387;42.690;23.328;2023-04-24T14:21:31;10.00;;;5.53;;
29984;SDS011;17387;42.690;23.328;2023-04-24T14:23:56;7.90;;;4.05;;
29984;SDS011;17387;42.690;23.328;2023-04-24T14:26:24;7.87;;;4.27;;
29984;SDS011;17387;42.690;23.328;2023-04-24T14:28:50;12.32;;;5.80;;
29984;SDS011;17387;42.690;23.328;2023-04-24T14:31:15;5.90;;;4.45;;
29984;SDS011;17387;42.690;23.328;2023-04-24T14:33:40;5.97;;;4.40;;
29984;SDS011;17387;42.690;23.328;2023-04-24T14:36:06;4.43;;;3.80;;
29984;SDS011;17387;42.690;23.328;2023-04-24T14:38:31;6.65;;;3.78;;
29984;SDS011;17387;42.690;23.328;2023-04-24T14:40:56;7.25;;;4.95;;
29984;SDS011;17387;42.690;23.328;2023-04-24T14:43:22;12.20;;;7.15;;
29984;SDS011;17387;42.690;23.328;2023-04-24T14:45:47;6.40;;;4.45;;
29984;SDS011;17387;42.690;23.328;2023-04-24T14:48:12;11.18;;;5.55;;
29984;SDS011;17387;42.690;23.328;2023-04-24T14:50:38;11.27;;;7.15;;